createdAt,value
2022-10-02T00:01:45.421Z,65.13
2022-10-02T00:04:13.980Z,63.90
2022-10-02T00:06:44.854Z,59.08
2022-10-02T00:09:18.624Z,60.00
2022-10-02T00:11:46.776Z,58.63
2022-10-02T00:14:16.127Z,60.33
2022-10-02T00:16:46.246Z,59.22
2022-10-02T00:19:15.585Z,55.83
2022-10-02T00:22:00.473Z,53.40
2022-10-02T00:24:32.235Z,56.38
2022-10-02T00:27:01.631Z,57.97
2022-10-02T00:29:33.465Z,54.65
2022-10-02T00:32:27.458Z,55.10
2022-10-02T00:35:22.312Z,50.08
2022-10-02T00:38:10.927Z,47.97
2022-10-02T00:40:46.658Z,48.97
2022-10-02T00:43:25.452Z,44.22
2022-10-02T00:46:13.558Z,38.72
2022-10-02T00:48:57.348Z,39.58
2022-10-02T00:51:26.902Z,35.67
2022-10-02T00:53:53.654Z,32.58
2022-10-02T00:56:35.706Z,29.15
2022-10-02T00:59:09.418Z,27.88
2022-10-02T01:01:54.876Z,24.73
2022-10-02T01:04:28.732Z,23.20
2022-10-02T01:06:55.997Z,21.30
2022-10-02T01:09:23.754Z,20.23
2022-10-02T01:11:51.074Z,17.75
2022-10-02T01:14:17.929Z,17.88
2022-10-02T01:16:45.264Z,16.17
2022-10-02T01:19:37.815Z,15.38
2022-10-02T01:22:18.976Z,12.95
2022-10-02T01:24:55.051Z,13.25
2022-10-02T01:27:22.371Z,11.52
2022-10-02T01:29:52.236Z,11.98
2022-10-02T01:32:19.027Z,10.90
2022-10-02T01:34:45.910Z,10.90
2022-10-02T01:37:12.991Z,10.88
2022-10-02T01:39:40.054Z,11.00
2022-10-02T01:42:06.794Z,11.00
2022-10-02T01:44:33.563Z,11.43
2022-10-02T01:47:10.943Z,11.55
2022-10-02T01:49:53.015Z,11.68
2022-10-02T01:52:35.381Z,11.40
2022-10-02T01:55:32.848Z,11.30
2022-10-02T01:58:16.759Z,11.70
2022-10-02T02:01:00.416Z,10.93
2022-10-02T02:03:27.282Z,12.55
2022-10-02T02:06:08.103Z,14.55
2022-10-02T02:08:51.342Z,14.48
2022-10-02T02:11:21.582Z,14.95
2022-10-02T02:14:03.981Z,13.63
2022-10-02T02:16:48.279Z,14.32
2022-10-02T02:19:24.183Z,14.23
2022-10-02T02:22:13.182Z,12.73
2022-10-02T02:24:52.509Z,13.88
2022-10-02T02:27:22.862Z,13.10
2022-10-02T02:29:50.257Z,15.65
2022-10-02T02:32:18.755Z,14.18
2022-10-02T02:34:49.711Z,13.85
2022-10-02T02:37:19.231Z,13.35
2022-10-02T02:40:00.787Z,13.75
2022-10-02T02:42:30.327Z,14.32
2022-10-02T02:44:58.954Z,16.63
2022-10-02T02:47:29.045Z,16.27
2022-10-02T02:50:02.106Z,18.23
2022-10-02T02:52:36.549Z,18.02
2022-10-02T02:55:44.800Z,17.55
2022-10-02T02:58:34.358Z,19.13
2022-10-02T03:01:01.243Z,17.98
2022-10-02T03:03:28.057Z,19.98
2022-10-02T03:06:18.987Z,19.30
2022-10-02T03:08:46.057Z,17.65
2022-10-02T03:11:33.127Z,17.35
2022-10-02T03:14:01.138Z,15.88
2022-10-02T03:16:45.690Z,17.67
2022-10-02T03:19:15.598Z,19.25
2022-10-02T03:21:58.293Z,20.73
2022-10-02T03:24:49.328Z,24.10
2022-10-02T03:27:30.223Z,29.70
2022-10-02T03:30:02.411Z,26.83
2022-10-02T03:32:29.211Z,28.55
2022-10-02T03:34:57.254Z,30.58
2022-10-02T03:37:25.271Z,29.08
2022-10-02T03:39:52.577Z,31.17
2022-10-02T03:42:25.384Z,32.72
2022-10-02T03:44:52.150Z,33.45
2022-10-02T03:47:18.950Z,35.15
2022-10-02T03:49:46.474Z,36.55
2022-10-02T03:52:17.749Z,36.67
2022-10-02T03:54:44.605Z,36.78
2022-10-02T03:57:22.041Z,33.88
2022-10-02T04:00:06.760Z,36.95
2022-10-02T04:02:53.169Z,38.80
2022-10-02T04:05:43.470Z,39.10
2022-10-02T04:08:19.207Z,42.13
2022-10-02T04:11:03.357Z,43.60
2022-10-02T04:13:45.240Z,43.95
2022-10-02T04:16:24.384Z,53.05
2022-10-02T04:18:58.099Z,55.70
2022-10-02T04:21:38.987Z,58.00
2022-10-02T04:25:04.148Z,61.13
2022-10-02T04:27:54.919Z,58.47
2022-10-02T04:30:21.932Z,54.75
2022-10-02T04:32:49.364Z,61.45
2022-10-02T04:35:16.337Z,63.85
2022-10-02T04:37:58.337Z,62.08
2022-10-02T04:40:50.307Z,59.00
2022-10-02T04:43:40.685Z,63.00
2022-10-02T04:46:19.830Z,64.65
2022-10-02T04:48:52.709Z,57.90
2022-10-02T04:51:30.515Z,60.05
2022-10-02T04:54:19.215Z,67.47
2022-10-02T04:56:55.018Z,63.03
2022-10-02T04:59:27.878Z,59.58
2022-10-02T05:02:24.882Z,59.45
2022-10-02T05:05:14.995Z,56.83
2022-10-02T05:08:00.446Z,73.20
2022-10-02T05:10:51.130Z,78.32
2022-10-02T05:13:56.455Z,77.13
2022-10-02T05:16:55.402Z,63.55
2022-10-02T05:19:43.862Z,79.55
2022-10-02T05:22:28.759Z,65.28
2022-10-02T05:25:08.426Z,74.55
2022-10-02T05:27:44.082Z,75.15
2022-10-02T05:30:14.602Z,77.18
2022-10-02T05:33:04.346Z,76.88
2022-10-02T05:35:37.199Z,62.67
2022-10-02T05:38:15.630Z,55.60
2022-10-02T05:40:51.507Z,55.03
2022-10-02T05:43:39.987Z,59.90
2022-10-02T05:46:24.205Z,65.90
2022-10-02T05:49:44.806Z,60.22
2022-10-02T05:52:11.606Z,61.53
2022-10-02T05:54:50.119Z,63.28
2022-10-02T05:57:32.258Z,59.88
2022-10-02T06:00:24.113Z,48.92
2022-10-02T06:03:09.491Z,44.67
2022-10-02T06:05:50.433Z,45.22
2022-10-02T06:08:19.992Z,45.83
2022-10-02T06:10:54.091Z,44.13
2022-10-02T06:13:30.083Z,45.78
2022-10-02T06:16:10.638Z,45.75
2022-10-02T06:18:38.428Z,63.75
2022-10-02T06:21:33.130Z,67.63
2022-10-02T06:24:02.435Z,78.57
2022-10-02T06:26:38.170Z,68.50
2022-10-02T06:29:07.436Z,68.65
2022-10-02T06:31:40.604Z,64.70
2022-10-02T06:34:11.839Z,63.55
2022-10-02T06:36:41.724Z,73.05
2022-10-02T06:39:41.434Z,73.40
2022-10-02T06:42:29.261Z,80.40
2022-10-02T06:45:20.190Z,51.42
2022-10-02T06:48:01.440Z,73.60
2022-10-02T06:50:42.134Z,75.53
2022-10-02T06:53:54.991Z,79.57
2022-10-02T06:56:45.791Z,75.75
2022-10-02T06:59:38.803Z,76.22
2022-10-02T07:02:20.442Z,70.25
2022-10-02T07:04:55.870Z,75.28
2022-10-02T07:07:49.140Z,69.72
2022-10-02T07:10:43.217Z,84.72
2022-10-02T07:13:22.850Z,98.05
2022-10-02T07:15:53.107Z,93.80
2022-10-02T07:18:22.670Z,87.05
2022-10-02T07:21:06.424Z,96.18
2022-10-02T07:23:47.578Z,95.35
2022-10-02T07:26:17.423Z,90.43
2022-10-02T07:28:58.800Z,95.40
2022-10-02T07:31:59.141Z,80.20
2022-10-02T07:34:29.091Z,52.90
2022-10-02T07:36:58.672Z,56.10
2022-10-02T07:39:41.605Z,58.38
2022-10-02T07:42:24.742Z,57.70
2022-10-02T07:44:58.635Z,59.20
2022-10-02T07:47:52.967Z,60.85
2022-10-02T07:50:27.322Z,55.38
2022-10-02T07:53:24.253Z,55.85
2022-10-02T07:55:54.086Z,54.85
2022-10-02T07:58:40.570Z,58.78
2022-10-02T08:01:36.480Z,49.80
2022-10-02T08:04:14.461Z,47.78
2022-10-02T08:06:41.245Z,52.00
2022-10-02T08:09:23.561Z,49.40
2022-10-02T08:11:59.081Z,47.92
2022-10-02T08:14:40.736Z,50.00
2022-10-02T08:17:39.318Z,54.72
2022-10-02T08:20:31.425Z,61.70
2022-10-02T08:23:04.656Z,56.88
2022-10-02T08:26:04.970Z,61.30
2022-10-02T08:29:01.946Z,60.97
2022-10-02T08:31:28.837Z,63.10
2022-10-02T08:33:57.536Z,65.43
2022-10-02T08:36:55.137Z,68.93
2022-10-02T08:39:46.718Z,65.80
2022-10-02T08:42:45.636Z,68.00
2022-10-02T08:45:35.944Z,64.10
2022-10-02T08:48:28.829Z,68.88
2022-10-02T08:51:27.432Z,67.38
2022-10-02T08:54:15.602Z,64.45
2022-10-02T08:57:01.037Z,68.35
2022-10-02T09:00:06.138Z,62.90
2022-10-02T09:02:49.685Z,59.08
2022-10-02T09:05:39.633Z,60.42
2022-10-02T09:08:26.305Z,57.20
2022-10-02T09:11:20.919Z,57.67
2022-10-02T09:14:27.347Z,54.10
2022-10-02T09:17:32.361Z,63.53
2022-10-02T09:20:04.985Z,57.58
2022-10-02T09:23:02.926Z,55.00
2022-10-02T09:25:35.913Z,53.50
2022-10-02T09:28:46.730Z,52.65
2022-10-02T09:31:23.284Z,48.90
2022-10-02T09:34:27.970Z,41.92
2022-10-02T09:37:10.557Z,42.50
2022-10-02T09:39:51.650Z,33.45
2022-10-02T09:42:21.340Z,29.50
2022-10-02T09:45:15.534Z,24.80
2022-10-02T09:47:53.371Z,18.48
2022-10-02T09:50:39.053Z,14.77
2022-10-02T09:53:36.951Z,11.70
2022-10-02T09:56:34.904Z,11.43
2022-10-02T09:59:11.010Z,9.90
2022-10-02T10:01:55.707Z,7.95
2022-10-02T10:05:01.265Z,7.28
2022-10-02T10:07:28.390Z,6.80
2022-10-02T10:10:13.400Z,6.93
2022-10-02T10:13:06.615Z,6.50
2022-10-02T10:15:51.250Z,6.10
2022-10-02T10:18:36.446Z,6.05
2022-10-02T10:21:41.891Z,5.28
2022-10-02T10:24:34.918Z,5.63
2022-10-02T10:27:32.243Z,6.20
2022-10-02T10:30:14.142Z,5.00
2022-10-02T10:33:00.347Z,5.15
2022-10-02T10:36:42.209Z,4.38
2022-10-02T10:39:40.382Z,3.65
2022-10-02T10:43:03.398Z,2.97
2022-10-02T10:45:43.948Z,4.93
2022-10-02T10:48:34.013Z,3.10
2022-10-02T10:51:16.583Z,3.55
2022-10-02T10:54:01.724Z,3.60
2022-10-02T10:56:50.340Z,3.20
2022-10-02T10:59:55.702Z,3.85
2022-10-02T11:03:00.434Z,2.90
2022-10-02T11:05:51.773Z,3.38
2022-10-02T11:08:36.665Z,3.03
2022-10-02T11:11:13.117Z,2.97
2022-10-02T11:14:08.678Z,3.30
2022-10-02T11:16:58.953Z,3.63
2022-10-02T11:19:44.581Z,3.30
2022-10-02T11:22:29.442Z,3.40
2022-10-02T11:25:14.656Z,3.22
2022-10-02T11:28:22.233Z,3.05
2022-10-02T11:30:57.994Z,3.70
2022-10-02T11:33:38.301Z,3.88
2022-10-02T11:36:26.922Z,2.88
2022-10-02T11:39:06.927Z,3.47
2022-10-02T11:41:59.309Z,3.47
2022-10-02T11:44:44.995Z,3.17
2022-10-02T11:47:36.249Z,3.95
2022-10-02T11:50:29.235Z,3.17
2022-10-02T11:53:14.490Z,2.88
2022-10-02T11:55:49.303Z,3.63
2022-10-02T11:58:34.077Z,2.75
2022-10-02T12:01:42.199Z,3.17
2022-10-02T12:04:34.054Z,2.47
2022-10-02T12:07:09.912Z,3.60
2022-10-02T12:10:16.508Z,2.63
2022-10-02T12:13:06.206Z,3.10
2022-10-02T12:15:44.963Z,2.85
2022-10-02T12:18:22.245Z,3.22
2022-10-02T12:21:45.169Z,3.45
2022-10-02T12:24:57.109Z,2.95
2022-10-02T12:28:05.102Z,3.10
2022-10-02T12:31:01.393Z,3.38
2022-10-02T12:33:40.986Z,2.97
2022-10-02T12:36:34.409Z,2.88
2022-10-02T12:39:39.821Z,2.85
2022-10-02T12:42:26.771Z,3.30
2022-10-02T12:45:31.496Z,3.10
2022-10-02T12:48:27.241Z,2.42
2022-10-02T12:51:05.890Z,3.42
2022-10-02T12:54:10.795Z,3.05
2022-10-02T12:57:01.067Z,3.00
2022-10-02T12:59:42.742Z,2.88
2022-10-02T13:03:02.226Z,2.92
2022-10-02T13:05:35.027Z,2.35
2022-10-02T13:08:25.022Z,2.05
2022-10-02T13:10:57.384Z,3.10
2022-10-02T13:13:36.187Z,2.55
2022-10-02T13:16:04.598Z,3.22
2022-10-02T13:18:53.007Z,2.70
2022-10-02T13:21:50.809Z,2.63
2022-10-02T13:24:51.760Z,3.55
2022-10-02T13:27:33.459Z,2.72
2022-10-02T13:30:17.451Z,2.40
2022-10-02T13:32:53.402Z,3.42
2022-10-02T13:35:49.000Z,2.42
2022-10-02T13:38:42.550Z,2.95
2022-10-02T13:41:39.147Z,3.67
2022-10-02T13:44:18.408Z,3.35
2022-10-02T13:47:07.053Z,2.60
2022-10-02T13:49:39.014Z,2.45
2022-10-02T13:52:25.642Z,3.15
2022-10-02T13:55:10.600Z,2.80
2022-10-02T13:57:48.363Z,2.92
2022-10-02T14:00:43.098Z,3.22
2022-10-02T14:03:19.917Z,3.05
2022-10-02T14:06:02.499Z,3.97
2022-10-02T14:09:03.155Z,3.20
2022-10-02T14:11:43.574Z,2.97
2022-10-02T14:14:31.748Z,3.10
2022-10-02T14:17:04.629Z,2.78
2022-10-02T14:19:44.456Z,2.92
2022-10-02T14:22:18.341Z,3.58
2022-10-02T14:25:00.048Z,2.92
2022-10-02T14:27:53.595Z,2.83
2022-10-02T14:30:21.898Z,3.70
2022-10-02T14:33:26.958Z,2.53
2022-10-02T14:35:59.647Z,2.83
2022-10-02T14:38:32.007Z,3.08
2022-10-02T14:41:02.114Z,4.07
2022-10-02T14:43:51.690Z,2.95
2022-10-02T14:46:25.053Z,3.22
2022-10-02T14:49:13.574Z,2.70
2022-10-02T14:51:44.129Z,2.95
2022-10-02T14:54:25.998Z,2.63
2022-10-02T14:57:19.390Z,2.83
2022-10-02T14:59:56.154Z,3.70
2022-10-02T15:02:48.954Z,3.40
2022-10-02T15:05:27.895Z,2.50
2022-10-02T15:07:54.686Z,2.60
2022-10-02T15:10:22.358Z,2.88
2022-10-02T15:12:58.430Z,3.47
2022-10-02T15:15:43.320Z,3.55
2022-10-02T15:18:32.028Z,3.75
2022-10-02T15:21:01.666Z,3.17
2022-10-02T15:23:41.638Z,3.83
2022-10-02T15:26:40.722Z,2.97
2022-10-02T15:29:21.846Z,2.60
2022-10-02T15:31:57.575Z,2.83
2022-10-02T15:35:02.910Z,3.30
2022-10-02T15:37:39.429Z,2.47
2022-10-02T15:40:46.190Z,3.13
2022-10-02T15:43:16.787Z,2.70
2022-10-02T15:46:02.943Z,2.80
2022-10-02T15:48:57.629Z,3.83
2022-10-02T15:51:46.098Z,3.15
2022-10-02T15:54:21.879Z,2.97
2022-10-02T15:57:08.676Z,3.70
2022-10-02T15:59:49.909Z,2.53
2022-10-02T16:02:35.442Z,3.35
2022-10-02T16:05:29.465Z,2.92
2022-10-02T16:08:08.543Z,2.83
2022-10-02T16:10:50.403Z,2.55
2022-10-02T16:13:29.221Z,2.20
2022-10-02T16:16:15.123Z,3.28
2022-10-02T16:18:58.077Z,2.63
2022-10-02T16:21:52.952Z,3.40
2022-10-02T16:24:23.962Z,2.60
2022-10-02T16:27:09.578Z,2.72
2022-10-02T16:29:54.495Z,3.25
2022-10-02T16:33:06.159Z,2.97
2022-10-02T16:36:16.697Z,2.90
2022-10-02T16:38:47.795Z,3.35
2022-10-02T16:41:39.219Z,3.10
2022-10-02T16:44:18.266Z,3.80
2022-10-02T16:47:00.705Z,2.92
2022-10-02T16:50:17.247Z,3.55
2022-10-02T16:53:01.898Z,3.22
2022-10-02T16:55:31.388Z,2.80
2022-10-02T16:57:59.641Z,2.47
2022-10-02T17:00:32.710Z,3.15
2022-10-02T17:03:29.062Z,2.60
2022-10-02T17:06:29.607Z,3.85
2022-10-02T17:09:19.343Z,2.42
2022-10-02T17:11:51.849Z,2.53
2022-10-02T17:14:22.636Z,2.45
2022-10-02T17:16:58.024Z,2.65
2022-10-02T17:19:31.455Z,3.85
2022-10-02T17:22:03.002Z,2.75
2022-10-02T17:25:02.197Z,2.55
2022-10-02T17:27:38.438Z,3.42
2022-10-02T17:30:24.322Z,2.38
2022-10-02T17:32:54.177Z,2.72
2022-10-02T17:35:39.962Z,2.50
2022-10-02T17:38:24.144Z,3.40
2022-10-02T17:41:12.894Z,3.00
2022-10-02T17:43:56.648Z,3.03
2022-10-02T17:46:30.535Z,2.60
2022-10-02T17:49:17.719Z,2.65
2022-10-02T17:52:26.609Z,3.53
2022-10-02T17:55:34.610Z,3.05
2022-10-02T17:58:36.693Z,2.95
2022-10-02T18:01:19.210Z,2.67
2022-10-02T18:04:17.126Z,2.75
2022-10-02T18:06:59.307Z,2.50
2022-10-02T18:09:48.282Z,2.42
2022-10-02T18:12:31.222Z,2.40
2022-10-02T18:15:05.689Z,2.97
2022-10-02T18:17:51.733Z,2.55
2022-10-02T18:20:35.321Z,2.85
2022-10-02T18:23:11.477Z,2.50
2022-10-02T18:25:41.702Z,3.05
2022-10-02T18:28:20.676Z,2.97
2022-10-02T18:31:25.490Z,2.70
2022-10-02T18:34:27.826Z,2.55
2022-10-02T18:36:54.711Z,2.15
2022-10-02T18:39:46.691Z,3.30
2022-10-02T18:42:16.501Z,2.97
2022-10-02T18:45:07.167Z,2.58
2022-10-02T18:47:50.964Z,3.17
2022-10-02T18:50:37.186Z,2.70
2022-10-02T18:53:23.120Z,3.38
2022-10-02T18:55:57.956Z,2.78
2022-10-02T18:58:51.134Z,2.70
2022-10-02T19:01:49.154Z,2.15
2022-10-02T19:04:50.977Z,2.40
2022-10-02T19:07:19.519Z,2.03
2022-10-02T19:09:46.983Z,2.28
2022-10-02T19:12:26.121Z,2.65
2022-10-02T19:14:55.841Z,4.07
2022-10-02T19:17:24.383Z,3.45
2022-10-02T19:19:51.133Z,2.63
2022-10-02T19:22:22.135Z,2.30
2022-10-02T19:25:03.340Z,2.90
2022-10-02T19:27:32.310Z,2.72
2022-10-02T19:30:21.456Z,2.20
2022-10-02T19:32:49.410Z,3.17
2022-10-02T19:35:22.299Z,2.60
2022-10-02T19:37:52.481Z,3.15
2022-10-02T19:40:24.792Z,2.58
2022-10-02T19:42:52.734Z,2.05
2022-10-02T19:45:25.424Z,2.50
2022-10-02T19:47:56.041Z,2.40
2022-10-02T19:50:27.909Z,2.60
2022-10-02T19:52:57.968Z,2.05
2022-10-02T19:55:42.866Z,2.55
2022-10-02T19:58:23.466Z,2.88
2022-10-02T20:00:51.617Z,2.60
2022-10-02T20:03:21.054Z,2.58
2022-10-02T20:05:49.706Z,2.53
2022-10-02T20:08:18.091Z,2.75
2022-10-02T20:10:58.806Z,2.78
2022-10-02T20:13:36.270Z,2.95
2022-10-02T20:16:28.556Z,2.33
2022-10-02T20:18:55.409Z,2.20
2022-10-02T20:21:36.401Z,2.60
2022-10-02T20:24:04.879Z,2.50
2022-10-02T20:26:34.032Z,2.63
2022-10-02T20:29:03.207Z,2.95
2022-10-02T20:31:32.760Z,3.22
2022-10-02T20:34:00.552Z,2.15
2022-10-02T20:36:32.990Z,2.42
2022-10-02T20:39:01.757Z,2.50
2022-10-02T20:41:35.045Z,2.15
2022-10-02T20:44:04.466Z,2.47
2022-10-02T20:46:35.783Z,2.60
2022-10-02T20:49:22.415Z,2.75
2022-10-02T20:52:28.000Z,2.45
2022-10-02T20:55:16.351Z,2.50
2022-10-02T20:58:08.152Z,2.13
2022-10-02T21:00:59.718Z,2.45
2022-10-02T21:03:37.174Z,2.42
2022-10-02T21:06:27.842Z,2.67
2022-10-02T21:09:02.631Z,2.10
2022-10-02T21:11:29.419Z,2.60
2022-10-02T21:14:05.119Z,2.58
2022-10-02T21:17:04.358Z,2.22
2022-10-02T21:20:16.624Z,2.08
2022-10-02T21:22:49.566Z,2.72
2022-10-02T21:25:18.248Z,2.80
2022-10-02T21:27:53.127Z,2.95
2022-10-02T21:30:20.491Z,1.80
2022-10-02T21:33:02.655Z,2.38
2022-10-02T21:35:56.398Z,2.30
2022-10-02T21:38:41.905Z,2.28
2022-10-02T21:41:47.100Z,2.78
2022-10-02T21:44:34.593Z,2.93
2022-10-02T21:47:18.850Z,3.03
2022-10-02T21:50:12.202Z,2.83
2022-10-02T21:52:48.014Z,3.10
2022-10-02T21:55:42.694Z,3.20
2022-10-02T21:58:09.797Z,3.13
2022-10-02T22:01:02.811Z,3.75
2022-10-02T22:03:46.530Z,4.53
2022-10-02T22:06:41.195Z,3.60
2022-10-02T22:09:42.134Z,4.68
2022-10-02T22:12:40.249Z,4.97
2022-10-02T22:15:56.102Z,5.28
2022-10-02T22:18:34.926Z,5.15
2022-10-02T22:21:26.210Z,5.77
2022-10-02T22:24:06.054Z,5.10
2022-10-02T22:27:02.636Z,5.53
2022-10-02T22:29:51.900Z,5.80
2022-10-02T22:32:52.523Z,6.50
2022-10-02T22:35:29.009Z,6.00
2022-10-02T22:37:58.776Z,5.30
2022-10-02T22:40:27.961Z,5.90
2022-10-02T22:43:00.490Z,5.80
2022-10-02T22:45:37.846Z,5.10
2022-10-02T22:48:08.159Z,5.03
2022-10-02T22:50:54.628Z,4.90
2022-10-02T22:53:26.709Z,5.27
2022-10-02T22:55:55.220Z,6.33
2022-10-02T22:58:41.998Z,5.10
2022-10-02T23:01:16.439Z,5.00
2022-10-02T23:03:53.199Z,6.10
2022-10-02T23:06:48.318Z,5.60
2022-10-02T23:09:22.723Z,6.10
2022-10-02T23:12:15.325Z,6.87
2022-10-02T23:14:48.285Z,6.20
2022-10-02T23:17:25.956Z,6.53
2022-10-02T23:20:03.943Z,6.83
2022-10-02T23:22:53.844Z,6.40
2022-10-02T23:25:33.000Z,6.33
2022-10-02T23:28:06.092Z,6.20
2022-10-02T23:30:36.410Z,6.40
2022-10-02T23:33:05.810Z,7.13
2022-10-02T23:35:39.269Z,6.10
2022-10-02T23:38:12.520Z,6.87
2022-10-02T23:41:28.534Z,5.50
2022-10-02T23:43:58.435Z,6.70
2022-10-02T23:46:31.407Z,6.40
2022-10-02T23:48:59.051Z,7.47
2022-10-02T23:51:47.110Z,6.83
2022-10-02T23:54:38.121Z,6.70
2022-10-02T23:57:34.354Z,7.40
